ADDS METAR Data INFO
IDs: Format: Raw Decoded Include TAF

Data at: 0219 UTC 18 Jan 2018

KRXE 180153Z AUTO 05004KT 10SM OVC040 M01/M03 A3032 RMK AO2 SLP308 T10111033
KRXE 180053Z AUTO 09004KT 10SM CLR M01/M03 A3034 RMK AO2 SLP313 T10111033
KRXE 172353Z AUTO 07004KT 10SM CLR 01/M03 A3034 RMK AO2 SLP308 T00061028 10022 21011 58005
KRXE 172253Z AUTO 08003KT 10SM CLR 02/M04 A3036 RMK AO2 SLP310 T00171039
KRXE 172153Z AUTO 06005KT 10SM CLR 02/M04 A3036 RMK AO2 SLP309 T00171044
KRXE 172053Z AUTO 06004KT 10SM CLR 01/M04 A3036 RMK AO2 SLP314 T00111039 57022
KRXE 171953Z AUTO 04004KT 10SM CLR 00/M05 A3038 RMK AO2 SLP322 T00001050
KRXE 171853Z AUTO 04005KT 10SM CLR M01/M06 A3042 RMK AO2 SLP342 T10111056
KRXE 171753Z AUTO 05003KT 10SM CLR M01/M06 A3044 RMK AO2 SLP347 T10111056 11011 21067 51010
KRXE 171653Z AUTO 05004KT 10SM CLR M04/M07 A3043 RMK AO2 SLP350 T10391067
KRXE 171553Z AUTO 03003KT 10SM CLR M04/M07 A3041 RMK AO2 SLP343 T10441072
KRXE 171453Z AUTO 00000KT 10SM CLR M06/M08 A3040 RMK AO2 SLP342 T10611078 53012
KRXE 171353Z AUTO 04004KT 10SM CLR M06/M07 A3039 RMK AO2 SLP336 T10611072
KRXE 171253Z AUTO 36003KT 6SM BR CLR M06/M07 A3037 RMK AO2 SLP328 T10561072
KRXE 171153Z AUTO 08005KT 10SM CLR M04/M06 A3036 RMK AO2 SLP317 T10441061 11039 21061 58004
KRXE 171053Z AUTO 07006KT 10SM OVC060 M04/M06 A3038 RMK AO2 SLP322 T10441061
KRXE 170953Z AUTO 00000KT 10SM OVC060 M04/M07 A3040 RMK AO2 SLP327 T10391067
KRXE 170853Z AUTO 00000KT 10SM OVC065 M04/M07 A3038 RMK AO2 SLP322 T10441072 51012
KRXE 170753Z AUTO 02003KT 10SM OVC065 M04/M08 A3036 RMK AO2 SLP318 T10441078
KRXE 170653Z AUTO 00000KT 10SM OVC060 M06/M08 A3036 RMK AO2 SLP324 T10561083 400171117
KRXE 170553Z AUTO 00000KT 10SM FEW095 BKN120 M06/M08 A3034 RMK AO2 SLP322 T10561078 10000 21056 53002
KRXE 170453Z AUTO 07004KT 10SM BKN090 M05/M08 A3032 RMK AO2 SLP322 T10501078
KRXE 170353Z AUTO 04005KT 10SM OVC100 M04/M08 A3033 RMK AO2 SLP326 T10441078
KRXE 170253Z AUTO 05004KT 10SM SCT110 M04/M07 A3033 RMK AO2 SLP327 T10391067 53008
KRXE 170153Z AUTO 06004KT 10SM CLR M04/M06 A3032 RMK AO2 SLP323 T10391056
KRXE 170053Z AUTO 03003KT 10SM CLR M03/M06 A3030 RMK AO2 SLP314 T10281056
KRXE 162353Z AUTO 00000KT 10SM CLR 00/M06 A3030 RMK AO2 SLP307 T00001056 10017 21061 53000
KRXE 162253Z AUTO 05003KT 10SM CLR 01/M06 A3030 RMK AO2 SLP303 T00111056
KRXE 162153Z AUTO 08005KT 10SM CLR 00/M06 A3030 RMK AO2 SLP302 T00001061
KRXE 162053Z AUTO 10004KT 10SM CLR 00/M06 A3030 RMK AO2 SLP304 T00001061 56017
KRXE 161953Z AUTO 05005KT 10SM CLR M02/M08 A3032 RMK AO2 SLP312 T10171078
KRXE 161853Z AUTO 05006KT 10SM CLR M04/M09 A3034 RMK AO2 SLP325 T10391089
KRXE 161753Z AUTO 06006KT 10SM CLR M06/M10 A3036 RMK AO2 SLP334 T10611100 11061 21117 58002
KRXE 161653Z AUTO 04007KT 10SM CLR M08/M12 A3038 RMK AO2 SLP343 T10831117
KRXE 161553Z AUTO 05007KT 10SM CLR M11/M13 A3037 RMK AO2 SLP344 T11061128
KRXE 161453Z AUTO 06006KT 10SM CLR M11/M13 A3037 RMK AO2 SLP339 T11111128 53001